sensor_id;sensor_type;location;lat;lon;timestamp;P1;durP1;ratioP1;P2;durP2;ratioP2
9970;SDS011;5026;51.494;11.974;2023-07-22T00:02:24;11.57;;;6.10;;
9970;SDS011;5026;51.494;11.974;2023-07-22T00:04:51;11.45;;;6.35;;
9970;SDS011;5026;51.494;11.974;2023-07-22T00:07:18;8.82;;;6.20;;
9970;SDS011;5026;51.494;11.974;2023-07-22T00:09:46;7.35;;;5.78;;
9970;SDS011;5026;51.494;11.974;2023-07-22T00:12:15;12.00;;;6.97;;
9970;SDS011;5026;51.494;11.974;2023-07-22T00:14:43;7.75;;;5.93;;
9970;SDS011;5026;51.494;11.974;2023-07-22T00:17:10;12.60;;;6.72;;
9970;SDS011;5026;51.494;11.974;2023-07-22T00:19:37;10.75;;;6.20;;
9970;SDS011;5026;51.494;11.974;2023-07-22T00:22:04;11.85;;;6.65;;
9970;SDS011;5026;51.494;11.974;2023-07-22T00:24:31;9.82;;;6.85;;
9970;SDS011;5026;51.494;11.974;2023-07-22T00:26:58;12.35;;;7.25;;
9970;SDS011;5026;51.494;11.974;2023-07-22T00:29:26;10.73;;;7.63;;
9970;SDS011;5026;51.494;11.974;2023-07-22T00:31:54;9.70;;;7.03;;
9970;SDS011;5026;51.494;11.974;2023-07-22T00:34:21;11.90;;;6.97;;
9970;SDS011;5026;51.494;11.974;2023-07-22T00:36:48;10.38;;;7.40;;
9970;SDS011;5026;51.494;11.974;2023-07-22T00:39:15;8.93;;;6.88;;
9970;SDS011;5026;51.494;11.974;2023-07-22T00:41:43;9.75;;;6.80;;
9970;SDS011;5026;51.494;11.974;2023-07-22T00:44:10;10.05;;;6.80;;
9970;SDS011;5026;51.494;11.974;2023-07-22T00:46:38;9.93;;;7.65;;
9970;SDS011;5026;51.494;11.974;2023-07-22T00:49:07;13.15;;;7.57;;
9970;SDS011;5026;51.494;11.974;2023-07-22T00:51:34;9.05;;;6.35;;
9970;SDS011;5026;51.494;11.974;2023-07-22T00:54:01;10.35;;;6.93;;
9970;SDS011;5026;51.494;11.974;2023-07-22T00:56:30;11.38;;;7.22;;
9970;SDS011;5026;51.494;11.974;2023-07-22T00:58:59;11.45;;;7.32;;
9970;SDS011;5026;51.494;11.974;2023-07-22T01:01:27;11.90;;;7.25;;
9970;SDS011;5026;51.494;11.974;2023-07-22T01:03:54;9.40;;;7.13;;
9970;SDS011;5026;51.494;11.974;2023-07-22T01:06:23;9.30;;;7.43;;
9970;SDS011;5026;51.494;11.974;2023-07-22T01:08:51;12.38;;;7.85;;
9970;SDS011;5026;51.494;11.974;2023-07-22T01:11:18;11.15;;;7.68;;
9970;SDS011;5026;51.494;11.974;2023-07-22T01:13:45;10.77;;;7.90;;
9970;SDS011;5026;51.494;11.974;2023-07-22T01:16:12;11.13;;;7.53;;
9970;SDS011;5026;51.494;11.974;2023-07-22T01:18:39;11.63;;;7.63;;
9970;SDS011;5026;51.494;11.974;2023-07-22T01:21:06;15.15;;;8.50;;
9970;SDS011;5026;51.494;11.974;2023-07-22T01:23:35;11.70;;;7.93;;
9970;SDS011;5026;51.494;11.974;2023-07-22T01:26:02;13.40;;;9.10;;
9970;SDS011;5026;51.494;11.974;2023-07-22T01:28:29;12.38;;;8.50;;
9970;SDS011;5026;51.494;11.974;2023-07-22T01:30:56;11.65;;;8.20;;
9970;SDS011;5026;51.494;11.974;2023-07-22T01:33:23;11.13;;;8.13;;
9970;SDS011;5026;51.494;11.974;2023-07-22T01:35:52;14.32;;;9.15;;
9970;SDS011;5026;51.494;11.974;2023-07-22T01:38:20;15.10;;;8.55;;
9970;SDS011;5026;51.494;11.974;2023-07-22T01:40:48;13.20;;;8.45;;
9970;SDS011;5026;51.494;11.974;2023-07-22T01:43:16;14.43;;;9.35;;
9970;SDS011;5026;51.494;11.974;2023-07-22T01:45:42;13.02;;;8.10;;
9970;SDS011;5026;51.494;11.974;2023-07-22T01:48:09;13.80;;;8.85;;
9970;SDS011;5026;51.494;11.974;2023-07-22T01:50:36;13.85;;;7.90;;
9970;SDS011;5026;51.494;11.974;2023-07-22T01:53:03;10.90;;;7.13;;
9970;SDS011;5026;51.494;11.974;2023-07-22T01:55:31;11.70;;;8.63;;
9970;SDS011;5026;51.494;11.974;2023-07-22T01:58:00;17.55;;;8.65;;
9970;SDS011;5026;51.494;11.974;2023-07-22T02:00:27;12.43;;;7.53;;
9970;SDS011;5026;51.494;11.974;2023-07-22T02:02:54;13.90;;;7.57;;
9970;SDS011;5026;51.494;11.974;2023-07-22T02:05:21;14.48;;;8.02;;
9970;SDS011;5026;51.494;11.974;2023-07-22T02:07:48;11.90;;;8.55;;
9970;SDS011;5026;51.494;11.974;2023-07-22T02:10:15;10.23;;;8.07;;
9970;SDS011;5026;51.494;11.974;2023-07-22T02:12:42;14.32;;;7.80;;
9970;SDS011;5026;51.494;11.974;2023-07-22T02:15:11;12.35;;;8.40;;
9970;SDS011;5026;51.494;11.974;2023-07-22T02:17:37;13.15;;;8.63;;
9970;SDS011;5026;51.494;11.974;2023-07-22T02:20:05;17.20;;;9.88;;
9970;SDS011;5026;51.494;11.974;2023-07-22T02:22:34;13.00;;;8.50;;
9970;SDS011;5026;51.494;11.974;2023-07-22T02:25:00;14.02;;;8.27;;
9970;SDS011;5026;51.494;11.974;2023-07-22T02:27:28;12.02;;;7.13;;
9970;SDS011;5026;51.494;11.974;2023-07-22T02:29:55;12.43;;;7.90;;
9970;SDS011;5026;51.494;11.974;2023-07-22T02:32:24;14.02;;;8.35;;
9970;SDS011;5026;51.494;11.974;2023-07-22T02:34:51;14.15;;;8.43;;
9970;SDS011;5026;51.494;11.974;2023-07-22T02:37:18;14.32;;;8.88;;
9970;SDS011;5026;51.494;11.974;2023-07-22T02:39:44;11.60;;;8.30;;
9970;SDS011;5026;51.494;11.974;2023-07-22T02:42:11;16.80;;;9.02;;
9970;SDS011;5026;51.494;11.974;2023-07-22T02:44:38;11.63;;;8.18;;
9970;SDS011;5026;51.494;11.974;2023-07-22T02:47:06;13.88;;;8.38;;
9970;SDS011;5026;51.494;11.974;2023-07-22T02:49:35;13.82;;;8.60;;
9970;SDS011;5026;51.494;11.974;2023-07-22T02:52:02;11.32;;;8.00;;
9970;SDS011;5026;51.494;11.974;2023-07-22T02:54:29;16.60;;;8.48;;
9970;SDS011;5026;51.494;11.974;2023-07-22T02:56:56;13.65;;;8.05;;
9970;SDS011;5026;51.494;11.974;2023-07-22T02:59:23;12.13;;;7.82;;
9970;SDS011;5026;51.494;11.974;2023-07-22T03:01:50;10.88;;;7.88;;
9970;SDS011;5026;51.494;11.974;2023-07-22T03:04:17;12.90;;;7.55;;
9970;SDS011;5026;51.494;11.974;2023-07-22T03:06:46;11.77;;;8.10;;
9970;SDS011;5026;51.494;11.974;2023-07-22T03:09:13;12.80;;;7.50;;
9970;SDS011;5026;51.494;11.974;2023-07-22T03:11:39;12.43;;;7.32;;
9970;SDS011;5026;51.494;11.974;2023-07-22T03:14:06;12.57;;;8.02;;
9970;SDS011;5026;51.494;11.974;2023-07-22T03:16:33;13.18;;;7.28;;
9970;SDS011;5026;51.494;11.974;2023-07-22T03:19:00;13.45;;;8.60;;
9970;SDS011;5026;51.494;11.974;2023-07-22T03:21:27;15.13;;;8.23;;
9970;SDS011;5026;51.494;11.974;2023-07-22T03:23:55;14.95;;;7.80;;
9970;SDS011;5026;51.494;11.974;2023-07-22T03:26:22;12.75;;;7.53;;
9970;SDS011;5026;51.494;11.974;2023-07-22T03:28:50;14.73;;;7.88;;
9970;SDS011;5026;51.494;11.974;2023-07-22T03:31:16;13.88;;;8.50;;
9970;SDS011;5026;51.494;11.974;2023-07-22T03:33:44;10.25;;;7.18;;
9970;SDS011;5026;51.494;11.974;2023-07-22T03:36:11;14.15;;;8.70;;
9970;SDS011;5026;51.494;11.974;2023-07-22T03:38:39;11.35;;;7.75;;
9970;SDS011;5026;51.494;11.974;2023-07-22T03:41:07;13.70;;;8.38;;
9970;SDS011;5026;51.494;11.974;2023-07-22T03:43:34;13.17;;;8.43;;
9970;SDS011;5026;51.494;11.974;2023-07-22T03:46:01;12.48;;;8.38;;
9970;SDS011;5026;51.494;11.974;2023-07-22T03:48:28;13.20;;;7.95;;
9970;SDS011;5026;51.494;11.974;2023-07-22T03:50:55;14.68;;;8.23;;
9970;SDS011;5026;51.494;11.974;2023-07-22T03:53:22;13.27;;;7.97;;
9970;SDS011;5026;51.494;11.974;2023-07-22T03:55:49;15.10;;;8.88;;
9970;SDS011;5026;51.494;11.974;2023-07-22T03:58:17;13.90;;;8.30;;
9970;SDS011;5026;51.494;11.974;2023-07-22T04:00:47;15.90;;;8.43;;
9970;SDS011;5026;51.494;11.974;2023-07-22T04:03:14;18.33;;;9.23;;
9970;SDS011;5026;51.494;11.974;2023-07-22T04:05:42;13.95;;;9.00;;
9970;SDS011;5026;51.494;11.974;2023-07-22T04:08:08;17.15;;;8.50;;
9970;SDS011;5026;51.494;11.974;2023-07-22T04:10:36;13.52;;;7.97;;
9970;SDS011;5026;51.494;11.974;2023-07-22T04:13:02;13.50;;;8.50;;
9970;SDS011;5026;51.494;11.974;2023-07-22T04:15:31;12.35;;;7.75;;
9970;SDS011;5026;51.494;11.974;2023-07-22T04:17:58;10.88;;;7.85;;
9970;SDS011;5026;51.494;11.974;2023-07-22T04:20:25;13.75;;;8.30;;
9970;SDS011;5026;51.494;11.974;2023-07-22T04:22:52;10.65;;;7.55;;
9970;SDS011;5026;51.494;11.974;2023-07-22T04:25:19;11.95;;;8.70;;
9970;SDS011;5026;51.494;11.974;2023-07-22T04:27:46;14.18;;;9.15;;
9970;SDS011;5026;51.494;11.974;2023-07-22T04:30:13;14.27;;;8.63;;
9970;SDS011;5026;51.494;11.974;2023-07-22T04:32:46;15.70;;;8.18;;
9970;SDS011;5026;51.494;11.974;2023-07-22T04:35:14;13.15;;;8.05;;
9970;SDS011;5026;51.494;11.974;2023-07-22T04:37:42;13.80;;;8.27;;
9970;SDS011;5026;51.494;11.974;2023-07-22T04:40:09;14.82;;;8.60;;
9970;SDS011;5026;51.494;11.974;2023-07-22T04:42:39;12.40;;;7.90;;
9970;SDS011;5026;51.494;11.974;2023-07-22T04:45:07;15.98;;;8.50;;
9970;SDS011;5026;51.494;11.974;2023-07-22T04:47:35;12.73;;;8.15;;
9970;SDS011;5026;51.494;11.974;2023-07-22T04:50:05;13.73;;;7.93;;
9970;SDS011;5026;51.494;11.974;2023-07-22T04:52:34;12.18;;;8.13;;
9970;SDS011;5026;51.494;11.974;2023-07-22T04:55:01;14.18;;;7.40;;
9970;SDS011;5026;51.494;11.974;2023-07-22T04:57:33;19.48;;;7.65;;
9970;SDS011;5026;51.494;11.974;2023-07-22T05:00:00;15.63;;;8.23;;
9970;SDS011;5026;51.494;11.974;2023-07-22T05:02:29;12.50;;;7.85;;
9970;SDS011;5026;51.494;11.974;2023-07-22T05:04:56;16.52;;;7.07;;
9970;SDS011;5026;51.494;11.974;2023-07-22T05:07:25;13.43;;;7.05;;
9970;SDS011;5026;51.494;11.974;2023-07-22T05:09:52;13.43;;;7.47;;
9970;SDS011;5026;51.494;11.974;2023-07-22T05:12:19;13.23;;;7.53;;
9970;SDS011;5026;51.494;11.974;2023-07-22T05:14:46;13.27;;;7.53;;
9970;SDS011;5026;51.494;11.974;2023-07-22T05:17:13;14.85;;;7.53;;
9970;SDS011;5026;51.494;11.974;2023-07-22T05:19:42;12.50;;;8.02;;
9970;SDS011;5026;51.494;11.974;2023-07-22T05:22:09;13.35;;;7.10;;
9970;SDS011;5026;51.494;11.974;2023-07-22T05:24:38;15.35;;;7.18;;
9970;SDS011;5026;51.494;11.974;2023-07-22T05:27:05;15.60;;;6.93;;
9970;SDS011;5026;51.494;11.974;2023-07-22T05:29:32;11.63;;;6.93;;
9970;SDS011;5026;51.494;11.974;2023-07-22T05:31:59;11.20;;;7.00;;
9970;SDS011;5026;51.494;11.974;2023-07-22T05:34:26;12.25;;;6.85;;
9970;SDS011;5026;51.494;11.974;2023-07-22T05:36:53;11.10;;;6.45;;
9970;SDS011;5026;51.494;11.974;2023-07-22T05:39:20;12.35;;;6.28;;
9970;SDS011;5026;51.494;11.974;2023-07-22T05:41:48;9.10;;;5.78;;
9970;SDS011;5026;51.494;11.974;2023-07-22T05:44:15;11.13;;;6.03;;
9970;SDS011;5026;51.494;11.974;2023-07-22T05:46:42;10.13;;;6.10;;
9970;SDS011;5026;51.494;11.974;2023-07-22T05:49:09;12.80;;;6.93;;
9970;SDS011;5026;51.494;11.974;2023-07-22T05:51:36;11.13;;;6.63;;
9970;SDS011;5026;51.494;11.974;2023-07-22T05:54:03;10.82;;;6.15;;
9970;SDS011;5026;51.494;11.974;2023-07-22T05:56:30;12.10;;;5.68;;
9970;SDS011;5026;51.494;11.974;2023-07-22T05:58:59;13.15;;;6.55;;
9970;SDS011;5026;51.494;11.974;2023-07-22T06:01:26;9.75;;;5.97;;
9970;SDS011;5026;51.494;11.974;2023-07-22T06:03:53;12.35;;;6.13;;
9970;SDS011;5026;51.494;11.974;2023-07-22T06:06:20;11.13;;;5.57;;
9970;SDS011;5026;51.494;11.974;2023-07-22T06:08:47;8.55;;;5.90;;
9970;SDS011;5026;51.494;11.974;2023-07-22T06:11:13;9.95;;;5.78;;
9970;SDS011;5026;51.494;11.974;2023-07-22T06:13:40;9.32;;;5.60;;
9970;SDS011;5026;51.494;11.974;2023-07-22T06:16:09;8.75;;;6.25;;
9970;SDS011;5026;51.494;11.974;2023-07-22T06:18:36;11.05;;;5.93;;
9970;SDS011;5026;51.494;11.974;2023-07-22T06:21:03;9.52;;;5.18;;
9970;SDS011;5026;51.494;11.974;2023-07-22T06:23:30;9.23;;;5.22;;
9970;SDS011;5026;51.494;11.974;2023-07-22T06:25:57;10.60;;;5.32;;
9970;SDS011;5026;51.494;11.974;2023-07-22T06:28:24;9.07;;;5.82;;
9970;SDS011;5026;51.494;11.974;2023-07-22T06:30:51;13.00;;;5.35;;
9970;SDS011;5026;51.494;11.974;2023-07-22T06:33:20;8.90;;;5.47;;
9970;SDS011;5026;51.494;11.974;2023-07-22T06:35:46;7.72;;;5.15;;
9970;SDS011;5026;51.494;11.974;2023-07-22T06:38:14;8.57;;;5.72;;
9970;SDS011;5026;51.494;11.974;2023-07-22T06:40:40;6.38;;;5.00;;
9970;SDS011;5026;51.494;11.974;2023-07-22T06:43:07;8.77;;;5.07;;
9970;SDS011;5026;51.494;11.974;2023-07-22T06:45:34;8.77;;;5.38;;
9970;SDS011;5026;51.494;11.974;2023-07-22T06:48:02;10.55;;;5.20;;
9970;SDS011;5026;51.494;11.974;2023-07-22T06:50:30;6.45;;;4.65;;
9970;SDS011;5026;51.494;11.974;2023-07-22T06:52:57;8.23;;;5.07;;
9970;SDS011;5026;51.494;11.974;2023-07-22T06:55:24;7.35;;;4.93;;
9970;SDS011;5026;51.494;11.974;2023-07-22T06:57:50;8.82;;;4.50;;
9970;SDS011;5026;51.494;11.974;2023-07-22T07:00:17;5.45;;;4.53;;
9970;SDS011;5026;51.494;11.974;2023-07-22T07:02:44;9.65;;;5.25;;
9970;SDS011;5026;51.494;11.974;2023-07-22T07:05:11;9.32;;;5.40;;
9970;SDS011;5026;51.494;11.974;2023-07-22T07:07:40;6.13;;;4.63;;
9970;SDS011;5026;51.494;11.974;2023-07-22T07:10:07;5.53;;;4.43;;
9970;SDS011;5026;51.494;11.974;2023-07-22T07:12:34;5.90;;;3.72;;
9970;SDS011;5026;51.494;11.974;2023-07-22T07:15:01;7.00;;;4.28;;
9970;SDS011;5026;51.494;11.974;2023-07-22T07:17:28;5.93;;;4.15;;
9970;SDS011;5026;51.494;11.974;2023-07-22T07:19:55;8.77;;;4.45;;
9970;SDS011;5026;51.494;11.974;2023-07-22T07:22:22;9.30;;;4.50;;
9970;SDS011;5026;51.494;11.974;2023-07-22T07:24:51;8.40;;;3.63;;
9970;SDS011;5026;51.494;11.974;2023-07-22T07:27:18;9.80;;;5.07;;
9970;SDS011;5026;51.494;11.974;2023-07-22T07:29:45;9.00;;;4.38;;
9970;SDS011;5026;51.494;11.974;2023-07-22T07:32:12;8.68;;;4.03;;
9970;SDS011;5026;51.494;11.974;2023-07-22T07:34:39;6.65;;;4.57;;
9970;SDS011;5026;51.494;11.974;2023-07-22T07:37:06;13.30;;;7.43;;
9970;SDS011;5026;51.494;11.974;2023-07-22T07:39:33;6.45;;;4.50;;
9970;SDS011;5026;51.494;11.974;2023-07-22T07:42:01;7.75;;;4.53;;
9970;SDS011;5026;51.494;11.974;2023-07-22T07:44:28;8.80;;;4.97;;
9970;SDS011;5026;51.494;11.974;2023-07-22T07:46:55;6.95;;;4.22;;
9970;SDS011;5026;51.494;11.974;2023-07-22T07:49:22;4.88;;;3.78;;
9970;SDS011;5026;51.494;11.974;2023-07-22T07:51:49;8.77;;;4.82;;
9970;SDS011;5026;51.494;11.974;2023-07-22T07:54:16;13.88;;;5.57;;
9970;SDS011;5026;51.494;11.974;2023-07-22T07:56:43;8.07;;;4.50;;
9970;SDS011;5026;51.494;11.974;2023-07-22T07:59:11;7.40;;;4.45;;
9970;SDS011;5026;51.494;11.974;2023-07-22T08:01:38;6.60;;;3.60;;
9970;SDS011;5026;51.494;11.974;2023-07-22T08:04:06;7.57;;;4.53;;
9970;SDS011;5026;51.494;11.974;2023-07-22T08:06:34;8.85;;;4.65;;
9970;SDS011;5026;51.494;11.974;2023-07-22T08:09:02;6.07;;;3.92;;
9970;SDS011;5026;51.494;11.974;2023-07-22T08:11:31;5.65;;;3.47;;
9970;SDS011;5026;51.494;11.974;2023-07-22T08:13:58;5.75;;;3.50;;
9970;SDS011;5026;51.494;11.974;2023-07-22T08:16:27;6.07;;;4.05;;
9970;SDS011;5026;51.494;11.974;2023-07-22T08:18:54;7.57;;;4.57;;
9970;SDS011;5026;51.494;11.974;2023-07-22T08:21:21;6.40;;;4.00;;
9970;SDS011;5026;51.494;11.974;2023-07-22T08:23:48;6.90;;;4.32;;
9970;SDS011;5026;51.494;11.974;2023-07-22T08:26:15;5.93;;;4.20;;
9970;SDS011;5026;51.494;11.974;2023-07-22T08:28:45;8.38;;;3.85;;
9970;SDS011;5026;51.494;11.974;2023-07-22T08:31:13;6.95;;;4.20;;
9970;SDS011;5026;51.494;11.974;2023-07-22T08:33:41;6.88;;;3.85;;
9970;SDS011;5026;51.494;11.974;2023-07-22T08:36:08;8.95;;;4.60;;
9970;SDS011;5026;51.494;11.974;2023-07-22T08:38:35;4.97;;;3.38;;
9970;SDS011;5026;51.494;11.974;2023-07-22T08:41:02;5.88;;;4.25;;
9970;SDS011;5026;51.494;11.974;2023-07-22T08:43:29;8.35;;;3.78;;
9970;SDS011;5026;51.494;11.974;2023-07-22T08:45:58;5.38;;;3.72;;
9970;SDS011;5026;51.494;11.974;2023-07-22T08:48:27;7.03;;;4.05;;
9970;SDS011;5026;51.494;11.974;2023-07-22T08:51:02;6.05;;;3.65;;
9970;SDS011;5026;51.494;11.974;2023-07-22T08:53:30;4.97;;;3.58;;
9970;SDS011;5026;51.494;11.974;2023-07-22T08:55:58;4.93;;;3.47;;
9970;SDS011;5026;51.494;11.974;2023-07-22T08:58:25;7.18;;;3.95;;
9970;SDS011;5026;51.494;11.974;2023-07-22T09:00:52;6.05;;;3.83;;
9970;SDS011;5026;51.494;11.974;2023-07-22T09:03:19;7.97;;;4.25;;
9970;SDS011;5026;51.494;11.974;2023-07-22T09:05:46;5.68;;;4.10;;
9970;SDS011;5026;51.494;11.974;2023-07-22T09:08:16;7.30;;;4.47;;
9970;SDS011;5026;51.494;11.974;2023-07-22T09:10:43;6.10;;;3.88;;
9970;SDS011;5026;51.494;11.974;2023-07-22T09:13:11;9.88;;;5.22;;
9970;SDS011;5026;51.494;11.974;2023-07-22T09:15:39;13.80;;;5.65;;
9970;SDS011;5026;51.494;11.974;2023-07-22T09:18:07;8.10;;;4.18;;
9970;SDS011;5026;51.494;11.974;2023-07-22T09:20:34;10.45;;;4.97;;
9970;SDS011;5026;51.494;11.974;2023-07-22T09:23:01;7.53;;;4.63;;
9970;SDS011;5026;51.494;11.974;2023-07-22T09:25:30;8.50;;;4.43;;
9970;SDS011;5026;51.494;11.974;2023-07-22T09:27:58;9.68;;;4.50;;
9970;SDS011;5026;51.494;11.974;2023-07-22T09:30:26;8.55;;;4.45;;
9970;SDS011;5026;51.494;11.974;2023-07-22T09:32:55;9.25;;;5.28;;
9970;SDS011;5026;51.494;11.974;2023-07-22T09:35:24;7.53;;;4.45;;
9970;SDS011;5026;51.494;11.974;2023-07-22T09:37:52;11.48;;;4.55;;
9970;SDS011;5026;51.494;11.974;2023-07-22T09:40:20;8.48;;;4.80;;
9970;SDS011;5026;51.494;11.974;2023-07-22T09:42:51;9.10;;;4.40;;
9970;SDS011;5026;51.494;11.974;2023-07-22T09:45:18;12.43;;;4.40;;
9970;SDS011;5026;51.494;11.974;2023-07-22T09:47:48;9.02;;;5.20;;
9970;SDS011;5026;51.494;11.974;2023-07-22T09:50:17;8.45;;;4.40;;
9970;SDS011;5026;51.494;11.974;2023-07-22T09:52:47;6.85;;;4.32;;
9970;SDS011;5026;51.494;11.974;2023-07-22T09:55:16;9.80;;;4.57;;
9970;SDS011;5026;51.494;11.974;2023-07-22T09:57:44;7.20;;;3.70;;
9970;SDS011;5026;51.494;11.974;2023-07-22T10:00:15;6.55;;;3.30;;
9970;SDS011;5026;51.494;11.974;2023-07-22T10:02:44;4.22;;;3.20;;
9970;SDS011;5026;51.494;11.974;2023-07-22T10:05:13;7.82;;;4.38;;
9970;SDS011;5026;51.494;11.974;2023-07-22T10:07:45;5.93;;;4.03;;
9970;SDS011;5026;51.494;11.974;2023-07-22T10:10:15;7.25;;;4.03;;
9970;SDS011;5026;51.494;11.974;2023-07-22T10:12:43;5.57;;;3.83;;
9970;SDS011;5026;51.494;11.974;2023-07-22T10:15:10;8.18;;;4.50;;
9970;SDS011;5026;51.494;11.974;2023-07-22T10:17:39;7.30;;;3.95;;
9970;SDS011;5026;51.494;11.974;2023-07-22T10:20:07;7.55;;;4.18;;
9970;SDS011;5026;51.494;11.974;2023-07-22T10:22:40;8.60;;;3.70;;
9970;SDS011;5026;51.494;11.974;2023-07-22T10:25:08;7.93;;;4.05;;
9970;SDS011;5026;51.494;11.974;2023-07-22T10:27:38;6.18;;;3.90;;
9970;SDS011;5026;51.494;11.974;2023-07-22T10:30:07;6.07;;;3.63;;
9970;SDS011;5026;51.494;11.974;2023-07-22T10:32:35;9.10;;;4.32;;
9970;SDS011;5026;51.494;11.974;2023-07-22T10:35:05;5.93;;;3.60;;
9970;SDS011;5026;51.494;11.974;2023-07-22T10:37:35;6.88;;;4.05;;
9970;SDS011;5026;51.494;11.974;2023-07-22T10:42:51;9.25;;;4.22;;
9970;SDS011;5026;51.494;11.974;2023-07-22T10:45:26;9.35;;;4.45;;
9970;SDS011;5026;51.494;11.974;2023-07-22T10:48:01;8.80;;;4.50;;
9970;SDS011;5026;51.494;11.974;2023-07-22T10:53:14;6.90;;;4.18;;
9970;SDS011;5026;51.494;11.974;2023-07-22T10:56:07;5.57;;;3.53;;
9970;SDS011;5026;51.494;11.974;2023-07-22T11:01:24;5.63;;;3.67;;
9970;SDS011;5026;51.494;11.974;2023-07-22T11:04:05;10.68;;;4.38;;
9970;SDS011;5026;51.494;11.974;2023-07-22T11:06:34;6.93;;;3.67;;
9970;SDS011;5026;51.494;11.974;2023-07-22T11:09:01;6.38;;;3.53;;
9970;SDS011;5026;51.494;11.974;2023-07-22T11:11:36;7.70;;;3.88;;
9970;SDS011;5026;51.494;11.974;2023-07-22T11:14:16;6.63;;;3.58;;
9970;SDS011;5026;51.494;11.974;2023-07-22T11:16:47;7.53;;;3.92;;
9970;SDS011;5026;51.494;11.974;2023-07-22T11:19:15;10.32;;;4.60;;
9970;SDS011;5026;51.494;11.974;2023-07-22T11:21:44;7.68;;;3.85;;
9970;SDS011;5026;51.494;11.974;2023-07-22T11:24:11;6.55;;;3.55;;
9970;SDS011;5026;51.494;11.974;2023-07-22T11:26:39;10.63;;;4.47;;
9970;SDS011;5026;51.494;11.974;2023-07-22T11:29:07;6.22;;;3.78;;
9970;SDS011;5026;51.494;11.974;2023-07-22T11:31:35;7.20;;;3.72;;
9970;SDS011;5026;51.494;11.974;2023-07-22T11:34:07;8.82;;;4.15;;
9970;SDS011;5026;51.494;11.974;2023-07-22T11:36:34;6.53;;;3.90;;
9970;SDS011;5026;51.494;11.974;2023-07-22T11:39:03;6.97;;;3.90;;
9970;SDS011;5026;51.494;11.974;2023-07-22T11:41:31;7.53;;;3.97;;
9970;SDS011;5026;51.494;11.974;2023-07-22T11:43:58;6.47;;;3.63;;
9970;SDS011;5026;51.494;11.974;2023-07-22T11:46:26;9.00;;;3.63;;
9970;SDS011;5026;51.494;11.974;2023-07-22T11:48:54;7.15;;;4.00;;
9970;SDS011;5026;51.494;11.974;2023-07-22T11:51:22;10.10;;;4.47;;
9970;SDS011;5026;51.494;11.974;2023-07-22T11:53:49;7.43;;;4.13;;
9970;SDS011;5026;51.494;11.974;2023-07-22T11:56:19;7.38;;;3.42;;
9970;SDS011;5026;51.494;11.974;2023-07-22T11:58:50;9.02;;;4.03;;
9970;SDS011;5026;51.494;11.974;2023-07-22T12:01:18;9.45;;;4.93;;
9970;SDS011;5026;51.494;11.974;2023-07-22T12:03:45;7.22;;;4.32;;
9970;SDS011;5026;51.494;11.974;2023-07-22T12:06:13;8.20;;;4.38;;
9970;SDS011;5026;51.494;11.974;2023-07-22T12:08:44;6.47;;;3.80;;
9970;SDS011;5026;51.494;11.974;2023-07-22T12:11:19;9.43;;;4.47;;
9970;SDS011;5026;51.494;11.974;2023-07-22T12:13:47;4.72;;;3.42;;
9970;SDS011;5026;51.494;11.974;2023-07-22T12:16:21;8.27;;;4.13;;
9970;SDS011;5026;51.494;11.974;2023-07-22T12:18:49;8.70;;;4.30;;
9970;SDS011;5026;51.494;11.974;2023-07-22T12:21:20;10.35;;;4.97;;
9970;SDS011;5026;51.494;11.974;2023-07-22T12:23:47;6.30;;;3.42;;
9970;SDS011;5026;51.494;11.974;2023-07-22T12:26:14;9.27;;;4.78;;
9970;SDS011;5026;51.494;11.974;2023-07-22T12:28:42;7.85;;;4.57;;
9970;SDS011;5026;51.494;11.974;2023-07-22T12:31:10;10.48;;;5.28;;
9970;SDS011;5026;51.494;11.974;2023-07-22T12:33:37;9.20;;;4.55;;
9970;SDS011;5026;51.494;11.974;2023-07-22T12:36:04;9.23;;;4.57;;
9970;SDS011;5026;51.494;11.974;2023-07-22T12:38:32;8.00;;;3.88;;
9970;SDS011;5026;51.494;11.974;2023-07-22T12:40:59;9.60;;;4.57;;
9970;SDS011;5026;51.494;11.974;2023-07-22T12:43:27;5.47;;;4.00;;
9970;SDS011;5026;51.494;11.974;2023-07-22T12:45:55;9.57;;;4.45;;
9970;SDS011;5026;51.494;11.974;2023-07-22T12:48:22;6.75;;;3.67;;
9970;SDS011;5026;51.494;11.974;2023-07-22T12:50:49;10.00;;;4.22;;
9970;SDS011;5026;51.494;11.974;2023-07-22T12:53:16;12.57;;;5.40;;
9970;SDS011;5026;51.494;11.974;2023-07-22T12:55:44;7.95;;;4.10;;
9970;SDS011;5026;51.494;11.974;2023-07-22T12:58:11;8.70;;;4.22;;
9970;SDS011;5026;51.494;11.974;2023-07-22T13:00:38;6.82;;;4.43;;
9970;SDS011;5026;51.494;11.974;2023-07-22T13:03:07;8.07;;;4.53;;
9970;SDS011;5026;51.494;11.974;2023-07-22T13:05:34;8.10;;;4.25;;
9970;SDS011;5026;51.494;11.974;2023-07-22T13:08:01;6.43;;;4.07;;
9970;SDS011;5026;51.494;11.974;2023-07-22T13:10:29;10.70;;;4.95;;
9970;SDS011;5026;51.494;11.974;2023-07-22T13:12:57;8.52;;;4.57;;
9970;SDS011;5026;51.494;11.974;2023-07-22T13:15:24;6.78;;;4.18;;
9970;SDS011;5026;51.494;11.974;2023-07-22T13:17:51;9.35;;;4.70;;
9970;SDS011;5026;51.494;11.974;2023-07-22T13:20:19;7.55;;;4.43;;
9970;SDS011;5026;51.494;11.974;2023-07-22T13:22:46;8.10;;;4.38;;
9970;SDS011;5026;51.494;11.974;2023-07-22T13:25:13;8.55;;;4.20;;
9970;SDS011;5026;51.494;11.974;2023-07-22T13:27:40;6.15;;;4.03;;
9970;SDS011;5026;51.494;11.974;2023-07-22T13:30:07;7.60;;;4.40;;
9970;SDS011;5026;51.494;11.974;2023-07-22T13:32:35;9.52;;;4.97;;
9970;SDS011;5026;51.494;11.974;2023-07-22T13:35:02;5.85;;;3.85;;
9970;SDS011;5026;51.494;11.974;2023-07-22T13:37:31;9.05;;;4.80;;
9970;SDS011;5026;51.494;11.974;2023-07-22T13:39:58;6.38;;;4.30;;
9970;SDS011;5026;51.494;11.974;2023-07-22T13:42:25;7.35;;;4.10;;
9970;SDS011;5026;51.494;11.974;2023-07-22T13:44:52;6.05;;;3.75;;
9970;SDS011;5026;51.494;11.974;2023-07-22T13:47:19;10.02;;;5.07;;
9970;SDS011;5026;51.494;11.974;2023-07-22T13:49:46;5.97;;;3.78;;
9970;SDS011;5026;51.494;11.974;2023-07-22T13:52:13;8.05;;;4.28;;
9970;SDS011;5026;51.494;11.974;2023-07-22T13:54:42;8.57;;;4.50;;
9970;SDS011;5026;51.494;11.974;2023-07-22T13:57:08;8.10;;;4.38;;
9970;SDS011;5026;51.494;11.974;2023-07-22T13:59:36;9.95;;;4.97;;
9970;SDS011;5026;51.494;11.974;2023-07-22T14:02:03;5.95;;;3.97;;
9970;SDS011;5026;51.494;11.974;2023-07-22T14:04:30;6.50;;;4.20;;
9970;SDS011;5026;51.494;11.974;2023-07-22T14:06:57;9.73;;;4.65;;
9970;SDS011;5026;51.494;11.974;2023-07-22T14:09:24;8.00;;;4.35;;
9970;SDS011;5026;51.494;11.974;2023-07-22T14:11:53;8.13;;;4.82;;
9970;SDS011;5026;51.494;11.974;2023-07-22T14:14:20;7.18;;;4.47;;
9970;SDS011;5026;51.494;11.974;2023-07-22T14:16:53;9.55;;;4.57;;
9970;SDS011;5026;51.494;11.974;2023-07-22T14:19:21;8.88;;;4.70;;
9970;SDS011;5026;51.494;11.974;2023-07-22T14:21:48;7.35;;;4.50;;
9970;SDS011;5026;51.494;11.974;2023-07-22T14:24:15;6.53;;;3.70;;
9970;SDS011;5026;51.494;11.974;2023-07-22T14:26:43;9.55;;;4.82;;
9970;SDS011;5026;51.494;11.974;2023-07-22T14:29:11;8.05;;;4.45;;
9970;SDS011;5026;51.494;11.974;2023-07-22T14:31:38;8.55;;;4.55;;
9970;SDS011;5026;51.494;11.974;2023-07-22T14:34:05;8.90;;;4.25;;
9970;SDS011;5026;51.494;11.974;2023-07-22T14:36:33;11.65;;;5.22;;
9970;SDS011;5026;51.494;11.974;2023-07-22T14:38:59;6.55;;;4.00;;
9970;SDS011;5026;51.494;11.974;2023-07-22T14:41:27;8.55;;;4.55;;
9970;SDS011;5026;51.494;11.974;2023-07-22T14:43:54;7.88;;;4.47;;
9970;SDS011;5026;51.494;11.974;2023-07-22T14:46:22;7.03;;;4.00;;
9970;SDS011;5026;51.494;11.974;2023-07-22T14:48:50;7.05;;;4.30;;
9970;SDS011;5026;51.494;11.974;2023-07-22T14:51:17;6.97;;;4.07;;
9970;SDS011;5026;51.494;11.974;2023-07-22T14:53:44;9.85;;;4.47;;
9970;SDS011;5026;51.494;11.974;2023-07-22T14:56:11;8.38;;;4.32;;
9970;SDS011;5026;51.494;11.974;2023-07-22T14:58:37;5.22;;;3.88;;
9970;SDS011;5026;51.494;11.974;2023-07-22T15:01:05;8.38;;;3.95;;
9970;SDS011;5026;51.494;11.974;2023-07-22T15:03:36;10.45;;;4.78;;
9970;SDS011;5026;51.494;11.974;2023-07-22T15:06:03;6.72;;;3.95;;
9970;SDS011;5026;51.494;11.974;2023-07-22T15:08:30;5.97;;;3.95;;